createdAt,value
2023-03-20T00:01:18.698Z,6.55
2023-03-20T00:03:46.864Z,4.55
2023-03-20T00:06:17.882Z,7.85
2023-03-20T00:08:46.232Z,4.88
2023-03-20T00:11:33.109Z,3.78
2023-03-20T00:14:01.603Z,4.65
2023-03-20T00:16:32.249Z,5.03
2023-03-20T00:18:59.440Z,4.13
2023-03-20T00:21:27.322Z,5.13
2023-03-20T00:23:55.427Z,3.85
2023-03-20T00:26:24.424Z,3.97
2023-03-20T00:28:52.068Z,4.30
2023-03-20T00:31:39.631Z,4.80
2023-03-20T00:34:10.925Z,4.38
2023-03-20T00:36:38.086Z,3.83
2023-03-20T00:39:05.287Z,5.07
2023-03-20T00:41:52.797Z,4.70
2023-03-20T00:44:42.497Z,3.67
2023-03-20T00:47:17.514Z,2.75
2023-03-20T00:49:45.860Z,3.33
2023-03-20T00:52:13.238Z,2.67
2023-03-20T00:54:40.418Z,3.58
2023-03-20T00:57:07.581Z,3.08
2023-03-20T00:59:37.240Z,7.70
2023-03-20T01:02:04.917Z,3.25
2023-03-20T01:04:36.838Z,3.10
2023-03-20T01:07:04.434Z,2.67
2023-03-20T01:09:31.783Z,3.17
2023-03-20T01:12:00.202Z,3.17
2023-03-20T01:14:27.404Z,3.05
2023-03-20T01:16:54.630Z,2.38
2023-03-20T01:19:21.878Z,2.47
2023-03-20T01:21:49.020Z,3.03
2023-03-20T01:24:16.574Z,5.00
2023-03-20T01:26:44.507Z,5.15
2023-03-20T01:29:30.531Z,2.40
2023-03-20T01:31:57.654Z,2.40
2023-03-20T01:34:24.870Z,3.92
2023-03-20T01:36:56.290Z,2.63
2023-03-20T01:39:27.925Z,2.75
2023-03-20T01:41:55.148Z,2.90
2023-03-20T01:44:23.839Z,2.17
2023-03-20T01:46:52.775Z,2.92
2023-03-20T01:49:19.993Z,3.15
2023-03-20T01:51:47.850Z,3.08
2023-03-20T01:54:27.633Z,2.70
2023-03-20T01:56:59.506Z,2.72
2023-03-20T01:59:37.276Z,2.33
2023-03-20T02:02:05.881Z,3.05
2023-03-20T02:04:42.052Z,2.53
2023-03-20T02:07:10.783Z,2.35
2023-03-20T02:09:38.207Z,3.08
2023-03-20T02:12:05.652Z,2.15
2023-03-20T02:14:33.405Z,2.38
2023-03-20T02:17:00.709Z,2.17
2023-03-20T02:19:32.434Z,2.17
2023-03-20T02:22:19.210Z,3.28
2023-03-20T02:25:04.900Z,1.83
2023-03-20T02:27:35.410Z,3.88
2023-03-20T02:30:21.442Z,3.03
2023-03-20T02:32:51.670Z,2.85
2023-03-20T02:35:20.424Z,3.15
2023-03-20T02:37:47.880Z,2.95
2023-03-20T02:40:20.574Z,2.10
2023-03-20T02:42:56.277Z,2.65
2023-03-20T02:45:28.498Z,2.88
2023-03-20T02:48:08.634Z,2.95
2023-03-20T02:50:58.580Z,2.53
2023-03-20T02:53:32.402Z,2.15
2023-03-20T02:55:59.558Z,2.97
2023-03-20T02:58:36.805Z,2.45
2023-03-20T03:01:13.362Z,2.95
2023-03-20T03:03:45.462Z,1.98
2023-03-20T03:06:12.656Z,1.83
2023-03-20T03:08:43.346Z,3.47
2023-03-20T03:11:10.983Z,2.03
2023-03-20T03:13:45.948Z,1.90
2023-03-20T03:18:41.638Z,2.20
2023-03-20T03:21:09.573Z,2.33
2023-03-20T03:23:44.761Z,2.40
2023-03-20T03:26:15.345Z,2.10
2023-03-20T03:28:45.800Z,1.70
2023-03-20T03:31:14.246Z,2.13
2023-03-20T03:33:43.723Z,3.08
2023-03-20T03:36:14.097Z,2.15
2023-03-20T03:38:45.697Z,3.20
2023-03-20T03:41:29.765Z,2.25
2023-03-20T03:44:05.960Z,2.63
2023-03-20T03:46:51.371Z,3.20
2023-03-20T03:49:23.654Z,2.67
2023-03-20T03:51:54.074Z,2.70
2023-03-20T03:54:27.898Z,2.05
2023-03-20T03:56:56.034Z,2.45
2023-03-20T03:59:43.444Z,3.03
2023-03-20T04:02:11.302Z,2.55
2023-03-20T04:04:43.300Z,2.30
2023-03-20T04:07:10.928Z,2.45
2023-03-20T04:09:38.121Z,2.10
2023-03-20T04:12:05.360Z,3.70
2023-03-20T04:14:32.545Z,4.03
2023-03-20T04:16:59.710Z,2.15
2023-03-20T04:19:26.853Z,2.83
2023-03-20T04:21:55.304Z,3.00
2023-03-20T04:24:22.464Z,2.15
2023-03-20T04:26:49.765Z,2.03
2023-03-20T04:29:17.425Z,1.95
2023-03-20T04:31:44.584Z,2.15
2023-03-20T04:34:12.189Z,3.08
2023-03-20T04:36:39.343Z,2.60
2023-03-20T04:39:06.812Z,2.72
2023-03-20T04:41:33.939Z,2.50
2023-03-20T04:44:01.160Z,3.30
2023-03-20T04:46:28.353Z,1.95
2023-03-20T04:48:55.655Z,2.13
2023-03-20T04:51:22.806Z,3.35
2023-03-20T04:53:49.937Z,2.38
2023-03-20T04:56:17.074Z,2.78
2023-03-20T04:58:44.208Z,1.77
2023-03-20T05:01:11.412Z,2.42
2023-03-20T05:03:39.656Z,2.08
2023-03-20T05:06:06.976Z,2.15
2023-03-20T05:08:34.120Z,2.35
2023-03-20T05:11:01.558Z,2.85
2023-03-20T05:13:28.777Z,1.98
2023-03-20T05:15:56.531Z,1.75
2023-03-20T05:18:23.665Z,2.00
2023-03-20T05:20:50.919Z,3.70
2023-03-20T05:23:18.092Z,2.63
2023-03-20T05:25:45.328Z,3.17
2023-03-20T05:28:12.496Z,2.58
2023-03-20T05:30:39.698Z,2.20
2023-03-20T05:33:08.087Z,3.30
2023-03-20T05:35:35.780Z,4.57
2023-03-20T05:38:03.169Z,2.92
2023-03-20T05:40:30.334Z,3.08
2023-03-20T05:42:57.526Z,6.60
2023-03-20T05:45:24.855Z,3.53
2023-03-20T05:47:52.006Z,3.25
2023-03-20T05:50:19.457Z,2.55
2023-03-20T05:52:49.777Z,3.47
2023-03-20T05:55:17.069Z,3.70
2023-03-20T05:57:44.215Z,3.33
2023-03-20T06:00:11.741Z,3.47
2023-03-20T06:02:38.942Z,3.10
2023-03-20T06:05:06.285Z,4.15
2023-03-20T06:07:33.422Z,3.42
2023-03-20T06:10:00.613Z,5.07
2023-03-20T06:12:27.885Z,4.40
2023-03-20T06:14:55.311Z,4.30
2023-03-20T06:17:22.493Z,4.20
2023-03-20T06:19:49.693Z,4.35
2023-03-20T06:22:16.850Z,4.15
2023-03-20T06:24:43.973Z,5.75
2023-03-20T06:27:11.238Z,5.03
2023-03-20T06:29:38.390Z,5.68
2023-03-20T06:32:08.125Z,4.18
2023-03-20T06:34:35.959Z,5.78
2023-03-20T06:37:03.093Z,7.03
2023-03-20T06:39:30.261Z,6.18
2023-03-20T06:41:57.442Z,5.88
2023-03-20T06:44:24.795Z,6.60
2023-03-20T06:46:52.096Z,5.80
2023-03-20T06:49:19.385Z,6.07
2023-03-20T06:51:47.877Z,8.15
2023-03-20T06:54:15.289Z,7.15
2023-03-20T06:56:42.429Z,6.75
2023-03-20T06:59:09.691Z,7.35
2023-03-20T07:01:36.896Z,7.20
2023-03-20T07:04:04.118Z,6.53
2023-03-20T07:06:31.281Z,6.93
2023-03-20T07:08:58.596Z,6.57
2023-03-20T07:11:25.741Z,8.80
2023-03-20T07:13:52.905Z,7.85
2023-03-20T07:16:20.100Z,7.40
2023-03-20T07:18:47.371Z,7.90
2023-03-20T07:21:18.394Z,5.75
2023-03-20T07:23:45.905Z,5.85
2023-03-20T07:26:13.760Z,8.55
2023-03-20T07:28:40.939Z,7.53
2023-03-20T07:31:08.142Z,6.05
2023-03-20T07:33:35.593Z,5.22
2023-03-20T07:36:02.920Z,5.63
2023-03-20T07:38:30.217Z,5.43
2023-03-20T07:40:57.347Z,5.45
2023-03-20T07:43:24.476Z,9.95
2023-03-20T07:45:51.928Z,5.50
2023-03-20T07:48:19.146Z,6.65
2023-03-20T07:50:46.288Z,5.72
2023-03-20T07:53:15.699Z,10.43
2023-03-20T07:55:45.121Z,4.95
2023-03-20T07:58:12.278Z,5.90
2023-03-20T08:00:39.436Z,6.13
2023-03-20T08:03:06.649Z,5.10
2023-03-20T08:05:34.174Z,5.65
2023-03-20T08:08:01.735Z,4.30
2023-03-20T08:10:29.398Z,5.82
2023-03-20T08:12:56.527Z,4.65
2023-03-20T08:15:23.813Z,3.92
2023-03-20T08:17:51.067Z,4.15
2023-03-20T08:20:19.897Z,4.32
2023-03-20T08:22:49.723Z,3.65
2023-03-20T08:25:17.254Z,5.28
2023-03-20T08:27:44.419Z,4.28
2023-03-20T08:30:13.031Z,3.60
2023-03-20T08:32:40.310Z,4.55
2023-03-20T08:35:16.333Z,3.22
2023-03-20T08:37:46.278Z,3.38
2023-03-20T08:40:13.604Z,3.45
2023-03-20T08:42:41.268Z,3.05
2023-03-20T08:45:08.847Z,3.05
2023-03-20T08:47:36.036Z,3.30
2023-03-20T08:50:03.263Z,3.05
2023-03-20T08:52:30.380Z,3.13
2023-03-20T08:54:57.822Z,4.18
2023-03-20T08:57:25.057Z,2.67
2023-03-20T08:59:52.324Z,2.60
2023-03-20T09:02:19.569Z,3.05
2023-03-20T09:04:46.800Z,6.47
2023-03-20T09:07:14.848Z,9.60
2023-03-20T09:09:41.977Z,2.63
2023-03-20T09:12:09.778Z,2.97
2023-03-20T09:14:38.370Z,2.78
2023-03-20T09:17:06.147Z,2.70
2023-03-20T09:19:33.458Z,3.38
2023-03-20T09:22:01.191Z,3.50
2023-03-20T09:24:29.283Z,2.33
2023-03-20T09:26:56.494Z,4.50
2023-03-20T09:29:23.733Z,2.50
2023-03-20T09:31:51.113Z,3.42
2023-03-20T09:34:18.297Z,3.28
2023-03-20T09:36:45.435Z,3.53
2023-03-20T09:39:12.725Z,3.80
2023-03-20T09:41:55.679Z,2.72
2023-03-20T09:44:23.640Z,2.10
2023-03-20T09:46:50.835Z,2.85
2023-03-20T09:49:20.719Z,2.97
2023-03-20T09:52:01.510Z,5.30
2023-03-20T09:54:32.383Z,4.18
2023-03-20T09:57:03.724Z,4.50
2023-03-20T09:59:33.482Z,2.72
2023-03-20T10:02:04.147Z,3.47
2023-03-20T10:04:31.320Z,4.30
2023-03-20T10:06:58.694Z,2.38
2023-03-20T10:09:33.653Z,2.38
2023-03-20T10:12:09.978Z,2.15
2023-03-20T10:14:54.102Z,2.65
2023-03-20T10:17:27.102Z,1.80
2023-03-20T10:20:04.943Z,2.90
2023-03-20T10:22:35.197Z,2.70
2023-03-20T10:25:28.756Z,3.30
2023-03-20T10:28:04.314Z,4.13
2023-03-20T10:30:34.542Z,4.45
2023-03-20T10:33:25.162Z,2.75
2023-03-20T10:36:11.197Z,2.65
2023-03-20T10:38:42.715Z,3.90
2023-03-20T10:41:11.193Z,2.78
2023-03-20T10:43:41.657Z,4.07
2023-03-20T10:46:11.800Z,1.80
2023-03-20T10:48:45.310Z,2.65
2023-03-20T10:51:15.894Z,1.80
2023-03-20T10:53:46.628Z,3.60
2023-03-20T10:56:17.035Z,1.98
2023-03-20T10:58:45.741Z,2.75
2023-03-20T11:01:13.040Z,1.90
2023-03-20T11:03:41.371Z,2.03
2023-03-20T11:06:27.772Z,1.60
2023-03-20T11:08:55.573Z,1.23
2023-03-20T11:11:24.271Z,0.90
2023-03-20T11:13:51.681Z,2.33
2023-03-20T11:16:24.755Z,1.30
2023-03-20T11:18:53.843Z,2.35
2023-03-20T11:21:23.347Z,2.67
2023-03-20T11:23:51.407Z,1.10
2023-03-20T11:26:20.690Z,2.85
2023-03-20T11:28:49.151Z,2.83
2023-03-20T11:31:28.426Z,1.08
2023-03-20T11:34:01.741Z,0.80
2023-03-20T11:36:30.201Z,2.50
2023-03-20T11:39:17.123Z,1.17
2023-03-20T11:41:48.664Z,2.13
2023-03-20T11:44:22.790Z,1.33
2023-03-20T11:47:10.295Z,1.10
2023-03-20T11:50:07.207Z,4.15
2023-03-20T11:52:37.476Z,0.68
2023-03-20T11:55:08.148Z,1.85
2023-03-20T11:57:36.675Z,0.63
2023-03-20T12:00:24.094Z,2.08
2023-03-20T12:02:51.488Z,1.02
2023-03-20T12:05:30.094Z,0.98
2023-03-20T12:08:06.347Z,1.10
2023-03-20T12:10:37.226Z,4.22
2023-03-20T12:13:13.589Z,1.42
2023-03-20T12:15:43.507Z,1.05
2023-03-20T12:18:16.891Z,1.25
2023-03-20T12:21:05.621Z,3.17
2023-03-20T12:24:05.364Z,1.00
2023-03-20T12:26:43.030Z,2.42
2023-03-20T12:29:28.688Z,2.10
2023-03-20T12:31:59.115Z,1.52
2023-03-20T12:34:30.968Z,1.95
2023-03-20T12:36:58.123Z,1.75
2023-03-20T12:39:29.417Z,1.77
2023-03-20T12:42:29.224Z,3.42
2023-03-20T12:44:59.014Z,1.20
2023-03-20T12:47:45.415Z,2.08
2023-03-20T12:50:32.182Z,1.30
2023-03-20T12:53:19.594Z,2.35
2023-03-20T12:55:52.530Z,1.80
2023-03-20T12:58:27.073Z,1.75
2023-03-20T13:00:58.051Z,2.70
2023-03-20T13:03:31.242Z,1.27
2023-03-20T13:06:11.793Z,1.60
2023-03-20T13:08:57.078Z,1.85
2023-03-20T13:13:59.761Z,2.17
2023-03-20T13:16:46.155Z,3.13
2023-03-20T13:19:13.380Z,1.50
2023-03-20T13:21:45.504Z,2.40
2023-03-20T13:24:24.948Z,1.45
2023-03-20T13:27:10.760Z,4.65
2023-03-20T13:29:44.108Z,3.20
2023-03-20T13:32:14.016Z,4.65
2023-03-20T13:34:54.035Z,2.92
2023-03-20T13:37:28.621Z,1.92
2023-03-20T13:40:14.275Z,1.60
2023-03-20T13:42:50.484Z,3.40
2023-03-20T13:45:25.723Z,1.30
2023-03-20T13:47:54.080Z,1.10
2023-03-20T13:50:39.680Z,1.00
2023-03-20T13:53:14.262Z,1.10
2023-03-20T13:55:47.064Z,2.08
2023-03-20T13:58:23.485Z,2.63
2023-03-20T14:01:02.202Z,1.40
2023-03-20T14:03:44.894Z,3.22
2023-03-20T14:06:18.987Z,1.40
2023-03-20T14:08:49.677Z,1.30
2023-03-20T14:11:35.167Z,1.60
2023-03-20T14:14:05.145Z,2.42
2023-03-20T14:16:32.527Z,1.52
2023-03-20T14:19:28.976Z,1.75
2023-03-20T14:21:56.695Z,2.80
2023-03-20T14:24:25.010Z,1.40
2023-03-20T14:26:58.010Z,2.25
2023-03-20T14:29:31.426Z,1.35
2023-03-20T14:32:31.244Z,1.10
2023-03-20T14:35:17.195Z,1.95
2023-03-20T14:38:08.830Z,1.50
2023-03-20T14:40:39.603Z,2.88
2023-03-20T14:43:25.156Z,1.38
2023-03-20T14:45:58.987Z,3.42
2023-03-20T14:48:29.217Z,1.00
2023-03-20T14:51:06.736Z,1.98
2023-03-20T14:53:34.862Z,2.03
2023-03-20T14:56:12.371Z,1.40
2023-03-20T14:58:58.658Z,3.92
2023-03-20T15:01:27.883Z,1.10
2023-03-20T15:04:15.596Z,1.30
2023-03-20T15:07:03.018Z,1.55
2023-03-20T15:09:32.139Z,1.85
2023-03-20T15:12:04.198Z,3.70
2023-03-20T15:14:43.662Z,1.33
2023-03-20T15:17:17.503Z,2.42
2023-03-20T15:19:45.358Z,2.53
2023-03-20T15:22:15.959Z,1.67
2023-03-20T15:24:43.203Z,1.48
2023-03-20T15:27:12.404Z,2.08
2023-03-20T15:29:45.664Z,1.67
2023-03-20T15:32:15.002Z,1.60
2023-03-20T15:34:44.092Z,1.27
2023-03-20T15:37:18.839Z,3.90
2023-03-20T15:39:47.502Z,3.25
2023-03-20T15:42:16.274Z,7.38
2023-03-20T15:44:45.262Z,1.98
2023-03-20T15:47:16.992Z,1.90
2023-03-20T15:49:48.998Z,1.80
2023-03-20T15:52:37.639Z,1.60
2023-03-20T15:55:08.623Z,1.67
2023-03-20T15:57:39.010Z,1.30
2023-03-20T16:00:07.478Z,5.32
2023-03-20T16:02:35.936Z,3.03
2023-03-20T16:05:03.269Z,2.90
2023-03-20T16:07:32.915Z,2.90
2023-03-20T16:10:01.325Z,2.78
2023-03-20T16:12:28.535Z,1.10
2023-03-20T16:14:56.683Z,1.90
2023-03-20T16:17:24.766Z,1.73
2023-03-20T16:19:52.071Z,1.50
2023-03-20T16:22:27.196Z,2.30
2023-03-20T16:24:59.675Z,1.10
2023-03-20T16:27:37.108Z,1.42
2023-03-20T16:30:06.863Z,1.63
2023-03-20T16:32:34.189Z,3.70
2023-03-20T16:35:03.522Z,7.47
2023-03-20T16:37:32.919Z,1.92
2023-03-20T16:40:15.741Z,2.55
2023-03-20T16:42:43.252Z,2.90
2023-03-20T16:45:29.080Z,1.65
2023-03-20T16:48:16.168Z,1.42
2023-03-20T16:50:48.497Z,1.48
2023-03-20T16:53:17.259Z,1.67
2023-03-20T16:55:48.984Z,2.17
2023-03-20T16:58:18.597Z,2.22
2023-03-20T17:00:59.691Z,1.38
2023-03-20T17:03:28.670Z,1.90
2023-03-20T17:05:58.221Z,1.83
2023-03-20T17:08:35.485Z,2.65
2023-03-20T17:11:06.056Z,3.83
2023-03-20T17:13:33.350Z,3.85
2023-03-20T17:16:01.072Z,4.28
2023-03-20T17:18:29.191Z,6.40
2023-03-20T17:20:56.479Z,3.13
2023-03-20T17:23:23.638Z,2.50
2023-03-20T17:25:51.984Z,2.05
2023-03-20T17:28:20.916Z,2.28
2023-03-20T17:30:51.994Z,3.78
2023-03-20T17:33:21.040Z,4.22
2023-03-20T17:35:49.157Z,3.03
2023-03-20T17:38:21.575Z,3.35
2023-03-20T17:40:49.872Z,2.97
2023-03-20T17:43:17.405Z,1.90
2023-03-20T17:45:45.360Z,4.82
2023-03-20T17:48:20.867Z,2.47
2023-03-20T17:50:51.365Z,2.53
2023-03-20T17:53:28.987Z,2.63
2023-03-20T17:55:56.354Z,6.03
2023-03-20T17:58:24.636Z,3.05
2023-03-20T18:00:52.683Z,3.85
2023-03-20T18:03:20.376Z,1.85
2023-03-20T18:05:50.024Z,2.00
2023-03-20T18:08:21.138Z,1.90
2023-03-20T18:10:52.111Z,4.53
2023-03-20T18:13:23.194Z,4.72
2023-03-20T18:15:51.670Z,5.85
2023-03-20T18:18:20.904Z,2.45
2023-03-20T18:20:49.226Z,10.27
2023-03-20T18:23:16.562Z,7.32
2023-03-20T18:25:43.916Z,4.30
2023-03-20T18:28:18.432Z,3.42
2023-03-20T18:30:45.621Z,3.22
2023-03-20T18:33:12.990Z,2.90
2023-03-20T18:35:40.286Z,4.13
2023-03-20T18:38:07.470Z,3.92
2023-03-20T18:40:36.286Z,3.03
2023-03-20T18:43:03.691Z,3.03
2023-03-20T18:45:31.788Z,2.55
2023-03-20T18:47:59.634Z,3.58
2023-03-20T18:50:37.514Z,4.25
2023-03-20T18:53:05.492Z,2.28
2023-03-20T18:55:32.952Z,3.80
2023-03-20T18:58:03.470Z,3.78
2023-03-20T19:00:35.861Z,4.15
2023-03-20T19:03:04.371Z,8.95
2023-03-20T19:05:31.565Z,14.50
2023-03-20T19:07:59.862Z,8.20
2023-03-20T19:10:27.230Z,8.25
2023-03-20T19:12:54.923Z,4.22
2023-03-20T19:15:22.463Z,4.13
2023-03-20T19:17:51.703Z,4.47
2023-03-20T19:20:28.403Z,4.45
2023-03-20T19:22:56.343Z,3.97
2023-03-20T19:25:23.465Z,3.28
2023-03-20T19:27:50.614Z,5.07
2023-03-20T19:30:27.499Z,4.00
2023-03-20T19:32:55.024Z,4.55
2023-03-20T19:35:50.458Z,4.53
2023-03-20T19:38:15.015Z,3.60
2023-03-20T19:40:43.536Z,6.38
2023-03-20T19:43:10.872Z,4.10
2023-03-20T19:45:38.953Z,2.88
2023-03-20T19:48:19.734Z,5.00
2023-03-20T19:50:49.370Z,3.85
2023-03-20T19:53:18.119Z,4.50
2023-03-20T19:55:46.448Z,2.88
2023-03-20T19:58:13.627Z,3.45
2023-03-20T20:00:59.023Z,4.43
2023-03-20T20:03:27.600Z,2.67
2023-03-20T20:05:54.862Z,4.32
2023-03-20T20:08:29.990Z,3.22
2023-03-20T20:11:06.569Z,4.27
2023-03-20T20:13:46.791Z,6.18
2023-03-20T20:16:21.757Z,7.15
2023-03-20T20:18:48.953Z,6.78
2023-03-20T20:24:03.502Z,9.50
2023-03-20T20:26:31.269Z,11.38
2023-03-20T20:29:02.627Z,8.57
2023-03-20T20:31:30.475Z,8.48
2023-03-20T20:34:37.306Z,7.28
2023-03-20T20:39:32.195Z,5.68
2023-03-20T20:41:59.364Z,9.00
2023-03-20T20:44:26.528Z,6.40
2023-03-20T20:46:53.656Z,6.90
2023-03-20T20:49:20.846Z,6.78
2023-03-20T20:51:48.558Z,6.72
2023-03-20T20:54:16.462Z,5.60
2023-03-20T20:56:43.582Z,5.22
2023-03-20T20:59:10.734Z,7.30
2023-03-20T21:01:37.988Z,5.68
2023-03-20T21:04:05.255Z,6.45
2023-03-20T21:07:03.474Z,5.93
2023-03-20T21:09:19.652Z,4.70
2023-03-20T21:11:47.033Z,7.20
2023-03-20T21:14:15.326Z,4.75
2023-03-20T21:16:42.514Z,4.85
2023-03-20T21:19:09.729Z,4.10
2023-03-20T21:21:39.221Z,4.20
2023-03-20T21:24:30.398Z,4.82
2023-03-20T21:27:02.091Z,4.05
2023-03-20T21:29:29.247Z,3.50
2023-03-20T21:31:56.465Z,3.97
2023-03-20T21:34:23.724Z,3.45
2023-03-20T21:36:51.431Z,5.90
2023-03-20T21:39:19.358Z,3.10
2023-03-20T21:41:46.683Z,3.80
2023-03-20T21:44:18.091Z,2.97
2023-03-20T21:53:00.366Z,3.50
2023-03-20T22:04:22.125Z,4.47
2023-03-20T22:07:17.900Z,2.88
2023-03-20T22:09:52.284Z,5.40
2023-03-20T22:12:46.485Z,3.42
2023-03-20T22:18:12.238Z,5.15
2023-03-20T22:29:32.445Z,4.28
2023-03-20T22:35:19.573Z,7.35
2023-03-20T22:43:01.484Z,5.70
2023-03-20T22:45:42.550Z,5.88
2023-03-20T22:48:14.905Z,7.93
2023-03-20T22:50:42.261Z,5.85
2023-03-20T22:53:09.595Z,8.95
2023-03-20T22:55:36.860Z,9.35
2023-03-20T22:58:08.123Z,7.00
2023-03-20T23:00:36.316Z,5.97
2023-03-20T23:03:22.255Z,8.02
2023-03-20T23:05:52.099Z,7.97
2023-03-20T23:08:19.483Z,6.47
2023-03-20T23:10:47.604Z,5.68
2023-03-20T23:13:15.566Z,6.60
2023-03-20T23:15:43.037Z,7.00
2023-03-20T23:18:10.486Z,6.63
2023-03-20T23:20:37.959Z,5.85
2023-03-20T23:23:05.266Z,5.47
2023-03-20T23:25:39.159Z,5.82
2023-03-20T23:28:07.942Z,6.88
2023-03-20T23:30:44.341Z,5.90
2023-03-20T23:33:15.637Z,4.60
2023-03-20T23:35:42.823Z,7.15
2023-03-20T23:38:10.015Z,4.88
2023-03-20T23:40:37.640Z,4.65
2023-03-20T23:43:05.107Z,4.75
2023-03-20T23:45:32.354Z,4.43
2023-03-20T23:47:59.566Z,6.53
2023-03-20T23:50:33.985Z,4.93
2023-03-20T23:53:17.493Z,4.18
2023-03-20T23:55:47.363Z,5.40
2023-03-20T23:58:14.947Z,3.97
